createdAt,value
2022-11-15T00:00:57.160Z,8.20
2022-11-15T00:03:26.094Z,8.20
2022-11-15T00:05:53.163Z,8.30
2022-11-15T00:08:20.362Z,8.30
2022-11-15T00:10:57.814Z,8.30
2022-11-15T00:13:24.757Z,8.20
2022-11-15T00:15:51.626Z,8.10
2022-11-15T00:18:19.023Z,8.20
2022-11-15T00:20:46.017Z,8.30
2022-11-15T00:23:13.083Z,8.30
2022-11-15T00:25:40.029Z,8.40
2022-11-15T00:28:06.751Z,8.40
2022-11-15T00:30:33.569Z,8.50
2022-11-15T00:33:04.583Z,8.40
2022-11-15T00:35:33.788Z,8.50
2022-11-15T00:38:00.986Z,8.60
2022-11-15T00:40:28.234Z,8.50
2022-11-15T00:42:55.020Z,8.60
2022-11-15T00:45:21.920Z,8.60
2022-11-15T00:47:48.675Z,8.70
2022-11-15T00:50:15.785Z,8.70
2022-11-15T00:52:42.874Z,8.70
2022-11-15T00:55:16.136Z,8.80
2022-11-15T00:57:43.105Z,8.80
2022-11-15T01:00:10.917Z,8.80
2022-11-15T01:02:37.667Z,8.90
2022-11-15T01:05:04.730Z,8.80
2022-11-15T01:07:31.509Z,8.80
2022-11-15T01:09:58.472Z,8.90
2022-11-15T01:12:25.251Z,8.90
2022-11-15T01:14:52.009Z,9.00
2022-11-15T01:17:18.762Z,9.00
2022-11-15T01:19:45.467Z,9.00
2022-11-15T01:22:12.290Z,9.00
2022-11-15T01:24:39.077Z,9.20
2022-11-15T01:27:05.894Z,9.20
2022-11-15T01:29:32.644Z,9.20
2022-11-15T01:31:59.581Z,9.20
2022-11-15T01:34:26.263Z,9.30
2022-11-15T01:36:52.978Z,9.30
2022-11-15T01:39:20.085Z,9.30
2022-11-15T01:41:46.926Z,9.40
2022-11-15T01:44:32.014Z,9.40
2022-11-15T01:47:05.305Z,9.30
2022-11-15T01:49:34.816Z,9.40
2022-11-15T01:52:04.625Z,9.40
2022-11-15T01:54:31.840Z,9.40
2022-11-15T01:57:04.993Z,9.50
2022-11-15T01:59:31.994Z,9.50
2022-11-15T02:01:58.931Z,9.50
2022-11-15T02:04:28.699Z,9.60
2022-11-15T02:06:56.262Z,9.60
2022-11-15T02:09:23.398Z,9.70
2022-11-15T02:11:53.115Z,9.80
2022-11-15T02:14:22.428Z,9.80
2022-11-15T02:16:52.086Z,9.90
2022-11-15T02:19:33.892Z,9.80
2022-11-15T02:22:34.434Z,9.80
2022-11-15T02:25:20.450Z,9.90
2022-11-15T02:28:06.019Z,9.90
2022-11-15T02:30:43.951Z,10.00
2022-11-15T02:33:29.632Z,9.90
2022-11-15T02:36:02.573Z,10.00
2022-11-15T02:38:32.360Z,10.00
2022-11-15T02:41:21.037Z,10.00
2022-11-15T02:43:57.632Z,10.10
2022-11-15T02:46:54.840Z,10.10
2022-11-15T02:49:22.517Z,10.20
2022-11-15T02:51:52.000Z,10.20
2022-11-15T02:54:23.205Z,10.20
2022-11-15T02:56:53.304Z,10.20
2022-11-15T02:59:29.072Z,10.30
2022-11-15T03:02:20.664Z,10.30
2022-11-15T03:05:31.613Z,10.30
2022-11-15T03:08:47.214Z,10.40
2022-11-15T03:11:20.560Z,10.40
2022-11-15T03:14:01.499Z,10.40
2022-11-15T03:16:31.073Z,10.40
2022-11-15T03:19:06.336Z,10.50
2022-11-15T03:21:35.045Z,10.50
2022-11-15T03:24:06.371Z,10.50
2022-11-15T03:26:35.941Z,10.60
2022-11-15T03:29:09.316Z,10.60
2022-11-15T03:31:51.187Z,10.60
2022-11-15T03:34:28.382Z,10.60
2022-11-15T03:36:55.594Z,10.60
2022-11-15T03:39:23.900Z,10.70
2022-11-15T03:42:12.404Z,10.80
2022-11-15T03:45:14.438Z,10.80
2022-11-15T03:47:46.518Z,10.80
2022-11-15T03:50:17.069Z,10.80
2022-11-15T03:52:46.786Z,10.80
2022-11-15T03:55:17.935Z,10.80
2022-11-15T03:57:44.914Z,10.90
2022-11-15T04:00:12.248Z,10.80
2022-11-15T04:02:38.973Z,10.90
2022-11-15T04:05:05.978Z,10.90
2022-11-15T04:07:32.804Z,10.90
2022-11-15T04:10:06.654Z,10.90
2022-11-15T04:12:35.955Z,10.90
2022-11-15T04:15:11.717Z,11.00
2022-11-15T04:17:58.211Z,10.90
2022-11-15T04:20:50.686Z,10.90
2022-11-15T04:23:41.760Z,10.90
2022-11-15T04:26:16.061Z,11.00
2022-11-15T04:29:01.526Z,11.00
2022-11-15T04:31:28.859Z,11.00
2022-11-15T04:33:56.466Z,11.00
2022-11-15T04:36:41.750Z,11.00
2022-11-15T04:39:08.999Z,11.10
2022-11-15T04:41:36.103Z,11.00
2022-11-15T04:44:03.008Z,11.10
2022-11-15T04:46:29.829Z,11.10
2022-11-15T04:48:58.856Z,11.10
2022-11-15T04:51:26.514Z,11.20
2022-11-15T04:53:53.325Z,11.10
2022-11-15T04:56:20.882Z,11.20
2022-11-15T04:58:50.843Z,11.20
2022-11-15T05:01:18.395Z,11.10
2022-11-15T05:04:04.544Z,11.10
2022-11-15T05:06:31.919Z,11.10
2022-11-15T05:08:59.185Z,11.10
2022-11-15T05:11:26.370Z,11.20
2022-11-15T05:13:53.796Z,11.10
2022-11-15T05:16:20.611Z,11.20
2022-11-15T05:18:47.375Z,11.20
2022-11-15T05:21:15.735Z,11.20
2022-11-15T05:23:42.690Z,11.20
2022-11-15T05:26:10.855Z,11.20
2022-11-15T05:28:37.789Z,11.20
2022-11-15T05:31:15.926Z,11.30
2022-11-15T05:33:44.304Z,11.30
2022-11-15T05:36:13.780Z,11.30
2022-11-15T05:38:40.934Z,11.30
2022-11-15T05:41:07.986Z,11.30
2022-11-15T05:43:37.989Z,11.30
2022-11-15T05:46:06.039Z,11.40
2022-11-15T05:48:37.115Z,11.30
2022-11-15T05:51:05.910Z,11.30
2022-11-15T05:53:33.318Z,11.30
2022-11-15T05:56:00.586Z,11.40
2022-11-15T05:58:27.429Z,11.30
2022-11-15T06:00:55.771Z,11.30
2022-11-15T06:03:22.586Z,11.30
2022-11-15T06:05:49.396Z,11.30
2022-11-15T06:08:16.116Z,11.30
2022-11-15T06:10:42.920Z,11.30
2022-11-15T06:13:09.746Z,11.30
2022-11-15T06:15:36.599Z,11.20
2022-11-15T06:18:03.753Z,11.20
2022-11-15T06:20:31.276Z,11.30
2022-11-15T06:22:59.958Z,11.30
2022-11-15T06:25:27.527Z,11.20
2022-11-15T06:27:58.169Z,11.30
2022-11-15T06:30:26.577Z,11.30
2022-11-15T06:33:00.166Z,11.30
2022-11-15T06:35:26.965Z,11.20
2022-11-15T06:37:53.791Z,11.20
2022-11-15T06:40:20.644Z,11.20
2022-11-15T06:42:47.403Z,11.20
2022-11-15T06:45:14.275Z,11.20
2022-11-15T06:47:47.775Z,11.20
2022-11-15T06:50:14.758Z,11.20
2022-11-15T06:52:42.610Z,11.20
2022-11-15T06:55:09.852Z,11.20
2022-11-15T06:57:37.478Z,11.20
2022-11-15T07:00:07.689Z,11.20
2022-11-15T07:02:34.461Z,11.20
2022-11-15T07:05:01.138Z,11.20
2022-11-15T07:07:27.956Z,11.10
2022-11-15T07:09:54.854Z,11.20
2022-11-15T07:12:21.694Z,11.10
2022-11-15T07:14:48.412Z,11.10
2022-11-15T07:17:15.173Z,11.10
2022-11-15T07:19:41.957Z,11.10
2022-11-15T07:22:08.845Z,11.10
2022-11-15T07:24:35.611Z,11.10
2022-11-15T07:27:02.501Z,11.10
2022-11-15T07:29:29.389Z,11.10
2022-11-15T07:31:56.444Z,11.10
2022-11-15T07:34:23.321Z,11.10
2022-11-15T07:36:50.253Z,11.20
2022-11-15T07:39:17.157Z,11.10
2022-11-15T07:41:44.569Z,11.10
2022-11-15T07:44:11.351Z,11.20
2022-11-15T07:46:38.128Z,11.30
2022-11-15T07:49:04.879Z,11.20
2022-11-15T07:51:32.218Z,11.20
2022-11-15T07:53:58.940Z,11.30
2022-11-15T07:56:25.714Z,11.30
2022-11-15T07:58:52.513Z,11.30
2022-11-15T08:01:19.376Z,11.30
2022-11-15T08:03:46.198Z,11.20
2022-11-15T08:06:13.002Z,11.30
2022-11-15T08:08:39.890Z,11.20
2022-11-15T08:11:06.664Z,11.20
2022-11-15T08:13:33.759Z,11.20
2022-11-15T08:16:01.959Z,11.20
2022-11-15T08:18:28.688Z,11.20
2022-11-15T08:20:59.729Z,11.20
2022-11-15T08:23:26.521Z,11.20
2022-11-15T08:25:53.223Z,11.20
2022-11-15T08:28:19.895Z,11.20
2022-11-15T08:30:46.659Z,11.20
2022-11-15T08:33:14.892Z,11.10
2022-11-15T08:35:45.008Z,11.20
2022-11-15T08:38:12.127Z,11.10
2022-11-15T08:40:38.910Z,11.10
2022-11-15T08:43:05.811Z,11.20
2022-11-15T08:45:34.760Z,11.20
2022-11-15T08:48:03.199Z,11.20
2022-11-15T08:50:30.185Z,11.20
2022-11-15T08:52:57.055Z,11.30
2022-11-15T08:55:24.963Z,11.30
2022-11-15T08:57:52.071Z,11.40
2022-11-15T09:00:20.980Z,11.30
2022-11-15T09:02:47.827Z,11.20
2022-11-15T09:05:17.121Z,11.20
2022-11-15T09:07:44.496Z,11.30
2022-11-15T09:10:11.565Z,11.40
2022-11-15T09:12:38.472Z,11.60
2022-11-15T09:15:06.583Z,12.10
2022-11-15T09:17:33.382Z,12.20
2022-11-15T09:20:00.290Z,12.30
2022-11-15T09:22:27.114Z,12.30
2022-11-15T09:24:53.903Z,12.50
2022-11-15T09:27:20.675Z,12.30
2022-11-15T09:29:47.394Z,12.40
2022-11-15T09:32:14.335Z,12.10
2022-11-15T09:34:41.118Z,12.30
2022-11-15T09:37:07.858Z,12.10
2022-11-15T09:39:34.601Z,12.20
2022-11-15T09:42:19.209Z,12.10
2022-11-15T09:44:55.395Z,12.30
2022-11-15T09:47:34.400Z,12.20
2022-11-15T09:50:08.837Z,12.20
2022-11-15T09:52:37.733Z,12.30
2022-11-15T09:55:08.903Z,12.50
2022-11-15T09:57:54.458Z,12.60
2022-11-15T10:00:50.035Z,12.40
2022-11-15T10:03:34.454Z,12.30
2022-11-15T10:06:06.257Z,12.60
2022-11-15T10:08:44.577Z,12.40
2022-11-15T10:11:36.697Z,12.30
2022-11-15T10:14:11.394Z,12.30
2022-11-15T10:16:49.346Z,12.50
2022-11-15T10:19:24.019Z,12.50
2022-11-15T10:22:18.603Z,12.50
2022-11-15T10:24:46.772Z,12.30
2022-11-15T10:27:16.285Z,12.20
2022-11-15T10:29:48.197Z,12.20
2022-11-15T10:32:17.622Z,12.10
2022-11-15T10:34:45.245Z,12.10
2022-11-15T10:37:12.433Z,12.00
2022-11-15T10:39:39.484Z,12.00
2022-11-15T10:42:25.913Z,12.00
2022-11-15T10:44:52.641Z,12.20
2022-11-15T10:47:38.900Z,12.30
2022-11-15T10:50:25.924Z,12.30
2022-11-15T10:52:52.814Z,12.20
2022-11-15T10:55:24.919Z,12.20
2022-11-15T10:57:55.296Z,12.30
2022-11-15T11:00:22.083Z,12.40
2022-11-15T11:03:22.013Z,12.40
2022-11-15T11:05:48.765Z,12.50
2022-11-15T11:08:15.441Z,12.70
2022-11-15T11:11:00.249Z,12.70
2022-11-15T11:13:29.958Z,12.80
2022-11-15T11:16:14.718Z,13.00
2022-11-15T11:18:44.520Z,13.20
2022-11-15T11:21:15.824Z,13.40
2022-11-15T11:24:15.881Z,13.40
2022-11-15T11:27:20.451Z,13.30
2022-11-15T11:30:18.014Z,13.50
2022-11-15T11:33:16.023Z,13.60
2022-11-15T11:36:19.525Z,13.50
2022-11-15T11:39:18.308Z,13.70
2022-11-15T11:42:01.541Z,13.80
2022-11-15T11:44:31.008Z,13.90
2022-11-15T11:47:08.623Z,14.10
2022-11-15T11:49:38.190Z,13.80
2022-11-15T11:52:10.350Z,13.90
2022-11-15T11:55:23.425Z,13.70
2022-11-15T11:58:12.033Z,13.70
2022-11-15T12:00:56.948Z,13.70
2022-11-15T12:03:46.679Z,13.60
2022-11-15T12:06:52.342Z,13.70
2022-11-15T12:09:22.073Z,13.90
2022-11-15T12:12:08.673Z,14.00
2022-11-15T12:14:49.429Z,14.00
2022-11-15T12:17:20.698Z,14.10
2022-11-15T12:19:47.599Z,14.10
2022-11-15T12:22:39.898Z,14.00
2022-11-15T12:25:23.736Z,14.10
2022-11-15T12:28:12.762Z,14.20
2022-11-15T12:31:17.715Z,14.10
2022-11-15T12:33:49.458Z,14.10
2022-11-15T12:36:22.061Z,14.30
2022-11-15T12:39:03.927Z,14.20
2022-11-15T12:41:36.416Z,14.20
2022-11-15T12:44:04.714Z,13.90
2022-11-15T12:46:31.406Z,14.10
2022-11-15T12:49:20.749Z,13.80
2022-11-15T12:51:50.473Z,13.70
2022-11-15T12:54:23.224Z,13.60
2022-11-15T12:57:08.357Z,13.60
2022-11-15T13:00:03.534Z,13.50
2022-11-15T13:02:36.978Z,13.40
2022-11-15T13:05:21.412Z,13.40
2022-11-15T13:07:48.150Z,13.40
2022-11-15T13:10:14.883Z,13.40
2022-11-15T13:12:47.813Z,13.40
2022-11-15T13:15:14.500Z,13.30
2022-11-15T13:17:48.589Z,13.30
2022-11-15T13:20:15.442Z,13.30
2022-11-15T13:23:01.986Z,13.40
2022-11-15T13:25:40.583Z,13.30
2022-11-15T13:28:12.421Z,13.40
2022-11-15T13:30:39.261Z,13.30
2022-11-15T13:33:22.003Z,13.20
2022-11-15T13:35:58.972Z,13.30
2022-11-15T13:38:25.650Z,13.20
2022-11-15T13:40:52.499Z,13.20
2022-11-15T13:43:22.170Z,13.20
2022-11-15T13:46:25.753Z,13.30
2022-11-15T13:48:57.823Z,13.30
2022-11-15T13:51:45.762Z,13.20
2022-11-15T13:54:25.351Z,13.20
2022-11-15T13:56:59.536Z,13.10
2022-11-15T13:59:35.936Z,13.20
2022-11-15T14:02:25.295Z,13.10
2022-11-15T14:04:56.288Z,13.00
2022-11-15T14:07:26.415Z,13.10
2022-11-15T14:09:53.553Z,13.00
2022-11-15T14:12:35.495Z,13.00
2022-11-15T14:15:39.531Z,13.00
2022-11-15T14:18:06.962Z,13.00
2022-11-15T14:20:39.312Z,12.90
2022-11-15T14:23:20.734Z,12.90
2022-11-15T14:25:58.633Z,12.90
2022-11-15T14:28:25.375Z,12.90
2022-11-15T14:30:57.576Z,12.80
2022-11-15T14:33:26.315Z,12.80
2022-11-15T14:35:53.753Z,12.80
2022-11-15T14:38:20.598Z,12.80
2022-11-15T14:40:47.409Z,12.80
2022-11-15T14:43:14.640Z,12.80
2022-11-15T14:45:41.822Z,12.80
2022-11-15T14:48:10.502Z,12.90
2022-11-15T14:50:37.744Z,12.80
2022-11-15T14:53:05.571Z,12.80
2022-11-15T14:55:37.281Z,12.80
2022-11-15T14:58:05.655Z,12.80
2022-11-15T15:00:35.197Z,12.80
2022-11-15T15:03:03.083Z,12.80
2022-11-15T15:05:33.901Z,12.80
2022-11-15T15:08:01.169Z,12.80
2022-11-15T15:10:42.297Z,12.70
2022-11-15T15:13:29.632Z,12.70
2022-11-15T15:15:56.362Z,12.70
2022-11-15T15:18:23.103Z,12.70
2022-11-15T15:21:03.933Z,12.70
2022-11-15T15:23:32.030Z,12.70
2022-11-15T15:25:59.249Z,12.70
2022-11-15T15:28:29.983Z,12.70
2022-11-15T15:31:00.953Z,12.70
2022-11-15T15:33:27.798Z,12.70
2022-11-15T15:35:54.577Z,12.70
2022-11-15T15:38:22.604Z,12.70
2022-11-15T15:40:51.514Z,12.70
2022-11-15T15:43:18.543Z,12.70
2022-11-15T15:45:46.150Z,12.70
2022-11-15T15:48:15.202Z,12.70
2022-11-15T15:50:43.905Z,12.70
2022-11-15T15:53:11.761Z,12.70
2022-11-15T15:55:39.064Z,12.80
2022-11-15T15:58:06.373Z,12.70
2022-11-15T16:00:34.676Z,12.80
2022-11-15T16:03:01.479Z,12.80
2022-11-15T16:05:28.350Z,12.80
2022-11-15T16:07:55.231Z,12.80
2022-11-15T16:10:23.807Z,12.80
2022-11-15T16:12:50.638Z,12.80
2022-11-15T16:15:17.668Z,12.70
2022-11-15T16:17:55.532Z,12.70
2022-11-15T16:20:35.935Z,12.80
2022-11-15T16:23:09.049Z,12.80
2022-11-15T16:25:45.472Z,12.70
2022-11-15T16:28:25.502Z,12.80
2022-11-15T16:31:02.275Z,12.70
2022-11-15T16:33:29.090Z,12.70
2022-11-15T16:35:55.914Z,12.70
2022-11-15T16:38:22.714Z,12.60
2022-11-15T16:40:49.518Z,12.60
2022-11-15T16:43:16.433Z,12.50
2022-11-15T16:45:43.230Z,12.50
2022-11-15T16:48:23.592Z,12.60
2022-11-15T16:50:50.736Z,12.50
2022-11-15T16:53:17.604Z,12.40
2022-11-15T16:55:44.357Z,12.50
2022-11-15T16:58:11.174Z,12.40
2022-11-15T17:00:38.050Z,12.30
2022-11-15T17:03:04.961Z,12.30
2022-11-15T17:05:31.770Z,12.30
2022-11-15T17:07:58.639Z,12.10
2022-11-15T17:10:26.828Z,12.10
2022-11-15T17:12:55.156Z,12.10
2022-11-15T17:15:22.447Z,12.00
2022-11-15T17:17:53.743Z,12.00
2022-11-15T17:20:22.392Z,11.90
2022-11-15T17:22:49.461Z,12.00
2022-11-15T17:25:16.325Z,11.90
2022-11-15T17:27:43.200Z,11.90
2022-11-15T17:30:12.680Z,11.90
2022-11-15T17:32:39.512Z,11.80
2022-11-15T17:35:15.035Z,11.80
2022-11-15T17:37:42.756Z,11.80
2022-11-15T17:40:10.225Z,11.70
2022-11-15T17:42:37.022Z,11.70
2022-11-15T17:45:09.565Z,11.60
2022-11-15T17:47:36.887Z,11.70
2022-11-15T17:50:04.067Z,11.70
2022-11-15T17:52:31.042Z,11.70
2022-11-15T17:54:57.915Z,11.60
2022-11-15T17:57:24.674Z,11.70
2022-11-15T17:59:51.554Z,11.60
2022-11-15T18:02:19.513Z,11.60
2022-11-15T18:04:46.239Z,11.60
2022-11-15T18:07:14.176Z,11.60
2022-11-15T18:09:43.956Z,11.40
2022-11-15T18:12:11.903Z,11.50
2022-11-15T18:14:39.208Z,11.50
2022-11-15T18:17:06.062Z,11.50
2022-11-15T18:19:32.940Z,11.40
2022-11-15T18:22:00.873Z,11.40
2022-11-15T18:24:32.237Z,11.40
2022-11-15T18:26:59.917Z,11.40
2022-11-15T18:29:26.968Z,11.40
2022-11-15T18:31:59.053Z,11.40
2022-11-15T18:34:31.959Z,11.30
2022-11-15T18:36:59.603Z,11.40
2022-11-15T18:39:26.626Z,11.40
2022-11-15T18:41:53.569Z,11.40
2022-11-15T18:44:20.531Z,11.40
2022-11-15T18:46:47.326Z,11.50
2022-11-15T18:49:16.632Z,11.50
2022-11-15T18:51:43.591Z,11.50
2022-11-15T18:54:12.058Z,11.50
2022-11-15T18:56:39.417Z,11.50
2022-11-15T18:59:08.291Z,11.50
2022-11-15T19:01:37.627Z,11.50
2022-11-15T19:04:07.512Z,11.50
2022-11-15T19:06:38.276Z,11.50
2022-11-15T19:09:05.393Z,11.50
2022-11-15T19:11:35.842Z,11.50
2022-11-15T19:14:08.182Z,11.60
2022-11-15T19:16:37.583Z,11.50
2022-11-15T19:19:07.393Z,11.60
2022-11-15T19:21:34.662Z,11.60
2022-11-15T19:24:01.880Z,11.60
2022-11-15T19:26:29.750Z,11.60
2022-11-15T19:28:58.756Z,11.60
2022-11-15T19:31:26.820Z,11.60
2022-11-15T19:33:56.582Z,11.60
2022-11-15T19:36:28.928Z,11.70
2022-11-15T19:38:56.394Z,11.70
2022-11-15T19:41:24.564Z,11.60
2022-11-15T19:43:52.458Z,11.60
2022-11-15T19:46:21.929Z,11.60
2022-11-15T19:48:49.636Z,11.60
2022-11-15T19:51:21.841Z,11.60
2022-11-15T19:53:50.053Z,11.70
2022-11-15T19:56:18.789Z,11.70
2022-11-15T19:58:46.429Z,11.70
2022-11-15T20:01:15.015Z,11.70
2022-11-15T20:03:41.931Z,11.70
2022-11-15T20:06:11.119Z,11.70
2022-11-15T20:08:38.156Z,11.70
2022-11-15T20:11:05.898Z,11.80
2022-11-15T20:13:32.903Z,11.70
2022-11-15T20:16:00.031Z,11.80
2022-11-15T20:18:28.907Z,11.80
2022-11-15T20:20:57.982Z,11.80
2022-11-15T20:23:25.597Z,11.80
2022-11-15T20:25:52.772Z,11.80
2022-11-15T20:28:24.955Z,11.80
2022-11-15T20:30:54.178Z,11.80
2022-11-15T20:33:22.482Z,11.80
2022-11-15T20:35:49.888Z,11.80
2022-11-15T20:38:17.094Z,11.90
2022-11-15T20:40:54.819Z,11.90
2022-11-15T20:43:26.002Z,11.90
2022-11-15T20:45:52.801Z,11.90
2022-11-15T20:48:19.706Z,11.80
2022-11-15T20:50:47.681Z,11.90
2022-11-15T20:53:17.406Z,11.90
2022-11-15T20:55:49.789Z,11.90
2022-11-15T20:58:17.277Z,11.90
2022-11-15T21:00:45.698Z,12.00
2022-11-15T21:03:13.801Z,11.90
2022-11-15T21:05:42.304Z,11.90
2022-11-15T21:08:10.472Z,11.90
2022-11-15T21:10:56.279Z,12.00
2022-11-15T21:13:23.216Z,12.00
2022-11-15T21:15:50.302Z,12.00
2022-11-15T21:18:17.425Z,12.00
2022-11-15T21:20:44.284Z,12.00
2022-11-15T21:23:12.060Z,12.00
2022-11-15T21:25:38.855Z,12.10
2022-11-15T21:28:05.751Z,12.00
2022-11-15T21:30:32.539Z,11.90
2022-11-15T21:32:59.394Z,12.00
2022-11-15T21:35:26.241Z,12.00
2022-11-15T21:37:56.746Z,12.00
2022-11-15T21:40:25.291Z,12.00
2022-11-15T21:42:52.079Z,12.00
2022-11-15T21:45:18.862Z,12.00
2022-11-15T21:47:46.579Z,12.00
2022-11-15T21:50:14.189Z,12.00
2022-11-15T21:52:41.359Z,12.00
2022-11-15T21:55:09.119Z,12.00
2022-11-15T21:57:35.897Z,12.00
2022-11-15T22:00:21.729Z,12.00
2022-11-15T22:02:48.562Z,12.00
2022-11-15T22:05:15.604Z,12.00
2022-11-15T22:07:42.367Z,12.00
2022-11-15T22:10:09.406Z,12.00
2022-11-15T22:12:36.301Z,12.00
2022-11-15T22:15:03.214Z,12.00
2022-11-15T22:17:49.917Z,12.00
2022-11-15T22:20:43.011Z,12.00
2022-11-15T22:23:04.164Z,12.00
2022-11-15T22:25:31.082Z,12.00
2022-11-15T22:27:57.961Z,12.00
2022-11-15T22:30:25.254Z,12.00
2022-11-15T22:32:51.965Z,12.00
2022-11-15T22:35:18.849Z,12.00
2022-11-15T22:37:45.796Z,12.10
2022-11-15T22:40:12.637Z,12.10
2022-11-15T22:42:39.431Z,12.10
2022-11-15T22:45:06.665Z,12.10
2022-11-15T22:47:33.521Z,12.00
2022-11-15T22:50:00.326Z,12.00
2022-11-15T22:52:27.260Z,11.90
2022-11-15T22:54:54.051Z,12.00
2022-11-15T22:57:20.873Z,12.00
2022-11-15T22:59:47.740Z,12.00
2022-11-15T23:02:14.462Z,12.10
2022-11-15T23:04:41.209Z,12.10
2022-11-15T23:07:08.025Z,12.10
2022-11-15T23:09:34.968Z,12.10
2022-11-15T23:12:20.344Z,12.10
2022-11-15T23:14:47.124Z,12.10
2022-11-15T23:17:14.015Z,12.10
2022-11-15T23:19:40.823Z,12.10
2022-11-15T23:22:26.389Z,12.10
2022-11-15T23:24:53.345Z,12.10
2022-11-15T23:27:20.708Z,12.00
2022-11-15T23:30:06.205Z,12.00
2022-11-15T23:32:51.673Z,12.00
2022-11-15T23:35:18.529Z,12.00
2022-11-15T23:37:45.524Z,12.10
2022-11-15T23:40:12.661Z,12.10
2022-11-15T23:42:39.421Z,12.10
2022-11-15T23:45:06.828Z,12.00
2022-11-15T23:47:33.708Z,12.10
2022-11-15T23:50:00.523Z,12.10
2022-11-15T23:52:27.491Z,12.10
2022-11-15T23:54:54.228Z,12.10
2022-11-15T23:57:21.010Z,12.10
2022-11-15T23:59:47.821Z,12.10
